sensor_id;sensor_type;location;lat;lon;timestamp;pressure;altitude;pressure_sealevel;temperature;humidity
14253;BME280;7210;51.502;10.722;2022-10-17T00:01:17;100063.28;;;11.64;100.00
14253;BME280;7210;51.502;10.722;2022-10-17T00:03:44;100064.16;;;11.58;100.00
14253;BME280;7210;51.502;10.722;2022-10-17T00:06:13;100066.19;;;11.56;100.00
14253;BME280;7210;51.502;10.722;2022-10-17T00:08:43;100062.13;;;11.53;100.00
14253;BME280;7210;51.502;10.722;2022-10-17T00:11:16;100065.03;;;11.52;100.00
14253;BME280;7210;51.502;10.722;2022-10-17T00:13:47;100066.50;;;11.48;100.00
14253;BME280;7210;51.502;10.722;2022-10-17T00:16:18;100062.69;;;11.44;100.00
14253;BME280;7210;51.502;10.722;2022-10-17T00:18:49;100055.97;;;11.41;100.00
14253;BME280;7210;51.502;10.722;2022-10-17T00:21:17;100059.66;;;11.40;100.00
14253;BME280;7210;51.502;10.722;2022-10-17T00:23:46;100062.53;;;11.39;100.00
14253;BME280;7210;51.502;10.722;2022-10-17T00:26:14;100062.72;;;11.37;100.00
14253;BME280;7210;51.502;10.722;2022-10-17T00:28:46;100058.72;;;11.35;100.00
14253;BME280;7210;51.502;10.722;2022-10-17T00:31:16;100059.94;;;11.32;100.00
14253;BME280;7210;51.502;10.722;2022-10-17T00:33:43;100054.28;;;11.29;100.00
14253;BME280;7210;51.502;10.722;2022-10-17T00:36:13;100063.09;;;11.23;100.00
14253;BME280;7210;51.502;10.722;2022-10-17T00:38:43;100060.06;;;11.19;100.00
14253;BME280;7210;51.502;10.722;2022-10-17T00:41:14;100064.78;;;11.18;100.00
14253;BME280;7210;51.502;10.722;2022-10-17T00:43:56;100066.63;;;11.17;100.00
14253;BME280;7210;51.502;10.722;2022-10-17T00:46:29;100063.38;;;11.15;100.00
14253;BME280;7210;51.502;10.722;2022-10-17T00:49:02;100063.38;;;11.15;100.00
14253;BME280;7210;51.502;10.722;2022-10-17T00:51:36;100065.44;;;11.13;100.00
14253;BME280;7210;51.502;10.722;2022-10-17T00:54:05;100061.69;;;11.03;100.00
14253;BME280;7210;51.502;10.722;2022-10-17T00:56:34;100072.47;;;11.01;100.00
14253;BME280;7210;51.502;10.722;2022-10-17T00:59:03;100075.78;;;10.97;100.00
14253;BME280;7210;51.502;10.722;2022-10-17T01:01:30;100081.13;;;10.90;100.00
14253;BME280;7210;51.502;10.722;2022-10-17T01:03:58;100081.78;;;10.86;100.00
14253;BME280;7210;51.502;10.722;2022-10-17T01:06:25;100088.50;;;10.82;100.00
14253;BME280;7210;51.502;10.722;2022-10-17T01:08:53;100085.94;;;10.75;100.00
14253;BME280;7210;51.502;10.722;2022-10-17T01:11:34;100087.63;;;10.63;100.00
14253;BME280;7210;51.502;10.722;2022-10-17T01:14:20;100098.00;;;10.65;100.00
14253;BME280;7210;51.502;10.722;2022-10-17T01:17:03;100094.97;;;10.61;100.00
14253;BME280;7210;51.502;10.722;2022-10-17T01:20:04;100101.69;;;10.57;100.00
14253;BME280;7210;51.502;10.722;2022-10-17T01:22:43;100107.00;;;10.57;100.00
14253;BME280;7210;51.502;10.722;2022-10-17T01:25:28;100095.25;;;10.53;100.00
14253;BME280;7210;51.502;10.722;2022-10-17T01:28:29;100098.06;;;10.58;100.00
14253;BME280;7210;51.502;10.722;2022-10-17T01:31:08;100094.38;;;10.59;100.00
14253;BME280;7210;51.502;10.722;2022-10-17T01:33:58;100085.84;;;10.57;100.00
14253;BME280;7210;51.502;10.722;2022-10-17T01:36:37;100085.38;;;10.67;100.00
14253;BME280;7210;51.502;10.722;2022-10-17T01:39:17;100085.97;;;10.69;100.00
14253;BME280;7210;51.502;10.722;2022-10-17T01:41:53;100081.31;;;10.64;100.00
14253;BME280;7210;51.502;10.722;2022-10-17T01:44:31;100093.69;;;10.70;100.00
14253;BME280;7210;51.502;10.722;2022-10-17T01:47:07;100089.44;;;10.69;100.00
14253;BME280;7210;51.502;10.722;2022-10-17T01:49:39;100101.16;;;10.80;100.00
14253;BME280;7210;51.502;10.722;2022-10-17T01:52:12;100103.16;;;10.84;100.00
14253;BME280;7210;51.502;10.722;2022-10-17T01:54:48;100103.53;;;10.88;100.00
14253;BME280;7210;51.502;10.722;2022-10-17T01:57:25;100100.94;;;10.81;100.00
14253;BME280;7210;51.502;10.722;2022-10-17T01:59:56;100097.53;;;10.74;100.00
14253;BME280;7210;51.502;10.722;2022-10-17T02:02:26;100091.47;;;10.67;100.00
14253;BME280;7210;51.502;10.722;2022-10-17T02:04:56;100075.38;;;10.44;100.00
14253;BME280;7210;51.502;10.722;2022-10-17T02:07:24;100088.47;;;10.57;100.00
14253;BME280;7210;51.502;10.722;2022-10-17T02:09:52;100090.34;;;10.57;100.00
14253;BME280;7210;51.502;10.722;2022-10-17T02:15:37;100089.94;;;10.53;100.00
14253;BME280;7210;51.502;10.722;2022-10-17T02:18:26;100089.63;;;10.43;100.00
14253;BME280;7210;51.502;10.722;2022-10-17T02:21:07;100092.53;;;10.35;100.00
14253;BME280;7210;51.502;10.722;2022-10-17T02:23:50;100087.22;;;10.35;100.00
14253;BME280;7210;51.502;10.722;2022-10-17T02:26:27;100088.03;;;10.36;100.00
14253;BME280;7210;51.502;10.722;2022-10-17T02:29:07;100078.69;;;10.33;100.00
14253;BME280;7210;51.502;10.722;2022-10-17T02:31:40;100086.41;;;10.35;100.00
14253;BME280;7210;51.502;10.722;2022-10-17T02:34:17;100089.25;;;10.33;100.00
14253;BME280;7210;51.502;10.722;2022-10-17T02:36:51;100083.97;;;10.33;100.00
14253;BME280;7210;51.502;10.722;2022-10-17T02:39:22;100090.88;;;10.34;100.00
14253;BME280;7210;51.502;10.722;2022-10-17T02:41:54;100086.41;;;10.35;100.00
14253;BME280;7210;51.502;10.722;2022-10-17T02:44:24;100087.63;;;10.32;100.00
14253;BME280;7210;51.502;10.722;2022-10-17T02:47:02;100076.47;;;10.30;100.00
14253;BME280;7210;51.502;10.722;2022-10-17T02:49:38;100086.03;;;10.31;100.00
14253;BME280;7210;51.502;10.722;2022-10-17T02:52:11;100086.03;;;10.31;100.00
14253;BME280;7210;51.502;10.722;2022-10-17T02:54:47;100080.56;;;10.26;100.00
14253;BME280;7210;51.502;10.722;2022-10-17T02:57:24;100089.91;;;10.29;100.00
14253;BME280;7210;51.502;10.722;2022-10-17T02:59:56;100094.41;;;10.22;100.00
14253;BME280;7210;51.502;10.722;2022-10-17T03:02:24;100088.13;;;10.16;100.00
14253;BME280;7210;51.502;10.722;2022-10-17T03:04:53;100091.81;;;10.15;100.00
14253;BME280;7210;51.502;10.722;2022-10-17T03:07:21;100084.09;;;10.14;100.00
14253;BME280;7210;51.502;10.722;2022-10-17T03:09:49;100084.53;;;10.11;100.00
14253;BME280;7210;51.502;10.722;2022-10-17T03:12:16;100086.97;;;10.06;100.00
14253;BME280;7210;51.502;10.722;2022-10-17T03:14:43;100077.25;;;10.00;100.00
14253;BME280;7210;51.502;10.722;2022-10-17T03:17:10;100071.97;;;9.93;100.00
14253;BME280;7210;51.502;10.722;2022-10-17T03:19:38;100076.03;;;9.96;100.00
14253;BME280;7210;51.502;10.722;2022-10-17T03:22:07;100078.88;;;9.94;100.00
14253;BME280;7210;51.502;10.722;2022-10-17T03:24:38;100085.78;;;9.95;100.00
14253;BME280;7210;51.502;10.722;2022-10-17T03:27:05;100081.75;;;9.93;100.00
14253;BME280;7210;51.502;10.722;2022-10-17T03:29:32;100081.13;;;9.91;100.00
14253;BME280;7210;51.502;10.722;2022-10-17T03:32:02;100077.28;;;9.87;100.00
14253;BME280;7210;51.502;10.722;2022-10-17T03:34:29;100079.75;;;9.82;100.00
14253;BME280;7210;51.502;10.722;2022-10-17T03:36:57;100091.91;;;9.83;100.00
14253;BME280;7210;51.502;10.722;2022-10-17T03:39:31;100085.41;;;9.85;100.00
14253;BME280;7210;51.502;10.722;2022-10-17T03:41:58;100085.03;;;9.82;100.00
14253;BME280;7210;51.502;10.722;2022-10-17T03:44:25;100090.75;;;9.79;100.00
14253;BME280;7210;51.502;10.722;2022-10-17T03:46:53;100094.78;;;9.81;100.00
14253;BME280;7210;51.502;10.722;2022-10-17T03:49:20;100092.16;;;9.81;100.00
14253;BME280;7210;51.502;10.722;2022-10-17T03:51:48;100096.19;;;9.84;100.00
14253;BME280;7210;51.502;10.722;2022-10-17T03:54:17;100100.88;;;9.82;100.00
14253;BME280;7210;51.502;10.722;2022-10-17T03:56:45;100103.94;;;9.79;100.00
14253;BME280;7210;51.502;10.722;2022-10-17T03:59:16;100104.97;;;9.71;100.00
14253;BME280;7210;51.502;10.722;2022-10-17T04:01:53;100115.53;;;9.71;100.00
14253;BME280;7210;51.502;10.722;2022-10-17T04:04:21;100103.19;;;9.65;100.00
14253;BME280;7210;51.502;10.722;2022-10-17T04:06:49;100112.72;;;9.66;100.00
14253;BME280;7210;51.502;10.722;2022-10-17T04:09:17;100107.88;;;9.57;100.00
14253;BME280;7210;51.502;10.722;2022-10-17T04:12:06;100120.84;;;9.52;100.00
14253;BME280;7210;51.502;10.722;2022-10-17T04:14:36;100115.19;;;9.48;100.00
14253;BME280;7210;51.502;10.722;2022-10-17T04:17:04;100117.03;;;9.48;100.00
14253;BME280;7210;51.502;10.722;2022-10-17T04:19:33;100115.81;;;9.44;100.00
14253;BME280;7210;51.502;10.722;2022-10-17T04:22:01;100111.16;;;9.39;100.00
14253;BME280;7210;51.502;10.722;2022-10-17T04:24:31;100120.47;;;9.42;100.00
14253;BME280;7210;51.502;10.722;2022-10-17T04:27:20;100114.19;;;9.43;100.00
14253;BME280;7210;51.502;10.722;2022-10-17T04:29:47;100112.38;;;9.43;100.00
14253;BME280;7210;51.502;10.722;2022-10-17T04:32:22;100114.59;;;9.46;100.00
14253;BME280;7210;51.502;10.722;2022-10-17T04:35:04;100114.00;;;9.44;100.00
14253;BME280;7210;51.502;10.722;2022-10-17T04:37:32;100117.03;;;9.41;100.00
14253;BME280;7210;51.502;10.722;2022-10-17T04:40:07;100124.34;;;9.39;100.00
14253;BME280;7210;51.502;10.722;2022-10-17T04:42:37;100120.09;;;9.38;100.00
14253;BME280;7210;51.502;10.722;2022-10-17T04:45:06;100120.47;;;9.42;100.00
14253;BME280;7210;51.502;10.722;2022-10-17T04:47:35;100119.88;;;9.33;100.00
14253;BME280;7210;51.502;10.722;2022-10-17T04:50:04;100117.25;;;9.33;100.00
14253;BME280;7210;51.502;10.722;2022-10-17T04:52:34;100120.31;;;9.30;100.00
14253;BME280;7210;51.502;10.722;2022-10-17T04:55:03;100120.50;;;9.29;100.00
14253;BME280;7210;51.502;10.722;2022-10-17T04:57:33;100110.38;;;9.19;100.00
14253;BME280;7210;51.502;10.722;2022-10-17T05:00:14;100127.03;;;9.26;100.00
14253;BME280;7210;51.502;10.722;2022-10-17T05:02:52;100127.41;;;9.23;100.00
14253;BME280;7210;51.502;10.722;2022-10-17T05:05:20;100139.19;;;9.27;100.00
14253;BME280;7210;51.502;10.722;2022-10-17T05:07:50;100134.31;;;9.24;100.00
14253;BME280;7210;51.502;10.722;2022-10-17T05:10:20;100131.06;;;9.22;100.00
14253;BME280;7210;51.502;10.722;2022-10-17T05:12:50;100138.78;;;9.17;100.00
14253;BME280;7210;51.502;10.722;2022-10-17T05:15:22;100140.81;;;9.15;100.00
14253;BME280;7210;51.502;10.722;2022-10-17T05:17:54;100146.09;;;9.15;100.00
14253;BME280;7210;51.502;10.722;2022-10-17T05:20:24;100137.16;;;9.16;100.00
14253;BME280;7210;51.502;10.722;2022-10-17T05:22:51;100135.94;;;9.25;100.00
14253;BME280;7210;51.502;10.722;2022-10-17T05:25:20;100142.22;;;9.24;100.00
14253;BME280;7210;51.502;10.722;2022-10-17T05:27:48;100153.00;;;9.23;100.00
14253;BME280;7210;51.502;10.722;2022-10-17T05:30:17;100146.69;;;9.17;100.00
14253;BME280;7210;51.502;10.722;2022-10-17T05:32:47;100150.16;;;9.11;100.00
14253;BME280;7210;51.502;10.722;2022-10-17T05:35:14;100151.56;;;9.07;100.00
14253;BME280;7210;51.502;10.722;2022-10-17T05:37:42;100154.63;;;9.04;100.00
14253;BME280;7210;51.502;10.722;2022-10-17T05:40:10;100153.00;;;9.03;100.00
14253;BME280;7210;51.502;10.722;2022-10-17T05:42:44;100148.94;;;9.07;100.00
14253;BME280;7210;51.502;10.722;2022-10-17T05:45:14;100153.00;;;9.10;100.00
14253;BME280;7210;51.502;10.722;2022-10-17T05:47:42;100152.38;;;9.14;100.00
14253;BME280;7210;51.502;10.722;2022-10-17T05:50:10;100154.59;;;9.17;100.00
14253;BME280;7210;51.502;10.722;2022-10-17T05:52:59;100150.56;;;9.21;100.00
14253;BME280;7210;51.502;10.722;2022-10-17T05:55:27;100153.78;;;9.23;100.00
14253;BME280;7210;51.502;10.722;2022-10-17T05:57:54;100152.38;;;9.27;100.00
14253;BME280;7210;51.502;10.722;2022-10-17T06:00:26;100156.84;;;9.27;100.00
14253;BME280;7210;51.502;10.722;2022-10-17T06:02:57;100155.63;;;9.29;100.00
14253;BME280;7210;51.502;10.722;2022-10-17T06:05:26;100163.34;;;9.31;100.00
14253;BME280;7210;51.502;10.722;2022-10-17T06:07:56;100160.28;;;9.34;100.00
14253;BME280;7210;51.502;10.722;2022-10-17T06:10:23;100167.59;;;9.38;100.00
14253;BME280;7210;51.502;10.722;2022-10-17T06:12:50;100168.81;;;9.42;100.00
14253;BME280;7210;51.502;10.722;2022-10-17T06:15:18;100170.81;;;9.53;100.00
14253;BME280;7210;51.502;10.722;2022-10-17T06:17:51;100177.53;;;9.56;100.00
14253;BME280;7210;51.502;10.722;2022-10-17T06:20:19;100176.47;;;9.63;100.00
14253;BME280;7210;51.502;10.722;2022-10-17T06:22:47;100179.50;;;9.67;100.00
14253;BME280;7210;51.502;10.722;2022-10-17T06:25:25;100182.16;;;9.73;100.00
14253;BME280;7210;51.502;10.722;2022-10-17T06:27:52;100179.91;;;9.77;100.00
14253;BME280;7210;51.502;10.722;2022-10-17T06:30:21;100180.09;;;9.82;100.00
14253;BME280;7210;51.502;10.722;2022-10-17T06:32:51;100174.63;;;9.83;100.00
14253;BME280;7210;51.502;10.722;2022-10-17T06:35:19;100186.59;;;9.86;100.00
14253;BME280;7210;51.502;10.722;2022-10-17T06:37:48;100187.38;;;9.93;100.00
14253;BME280;7210;51.502;10.722;2022-10-17T06:40:17;100174.38;;;9.91;100.00
14253;BME280;7210;51.502;10.722;2022-10-17T06:42:44;100189.41;;;9.97;100.00
14253;BME280;7210;51.502;10.722;2022-10-17T06:45:24;100184.28;;;10.02;100.00
14253;BME280;7210;51.502;10.722;2022-10-17T06:48:06;100192.22;;;10.15;100.00
14253;BME280;7210;51.502;10.722;2022-10-17T06:50:58;100197.84;;;10.25;100.00
14253;BME280;7210;51.502;10.722;2022-10-17T06:53:29;100190.13;;;10.30;100.00
14253;BME280;7210;51.502;10.722;2022-10-17T06:56:25;100208.34;;;10.51;100.00
14253;BME280;7210;51.502;10.722;2022-10-17T06:59:08;100207.25;;;10.59;100.00
14253;BME280;7210;51.502;10.722;2022-10-17T07:01:37;100199.66;;;10.75;100.00
14253;BME280;7210;51.502;10.722;2022-10-17T07:04:05;100201.59;;;10.86;100.00
14253;BME280;7210;51.502;10.722;2022-10-17T07:06:33;100200.31;;;10.95;100.00
14253;BME280;7210;51.502;10.722;2022-10-17T07:09:10;100209.16;;;11.13;100.00
14253;BME280;7210;51.502;10.722;2022-10-17T07:11:37;100213.13;;;11.29;100.00
14253;BME280;7210;51.502;10.722;2022-10-17T07:14:05;100215.88;;;11.40;100.00
14253;BME280;7210;51.502;10.722;2022-10-17T07:16:34;100218.63;;;11.52;100.00
14253;BME280;7210;51.502;10.722;2022-10-17T07:19:08;100218.09;;;11.68;100.00
14253;BME280;7210;51.502;10.722;2022-10-17T07:21:37;100222.84;;;11.84;100.00
14253;BME280;7210;51.502;10.722;2022-10-17T07:24:05;100229.25;;;11.94;100.00
14253;BME280;7210;51.502;10.722;2022-10-17T07:26:35;100234.38;;;12.07;100.00
14253;BME280;7210;51.502;10.722;2022-10-17T07:29:02;100228.50;;;12.23;100.00
14253;BME280;7210;51.502;10.722;2022-10-17T07:31:38;100218.13;;;12.40;100.00
14253;BME280;7210;51.502;10.722;2022-10-17T07:34:06;100220.81;;;12.51;100.00
14253;BME280;7210;51.502;10.722;2022-10-17T07:36:34;100214.09;;;12.67;100.00
14253;BME280;7210;51.502;10.722;2022-10-17T07:39:03;100217.59;;;12.79;100.00
14253;BME280;7210;51.502;10.722;2022-10-17T07:41:33;100220.56;;;13.00;100.00
14253;BME280;7210;51.502;10.722;2022-10-17T07:44:00;100223.88;;;13.25;100.00
14253;BME280;7210;51.502;10.722;2022-10-17T07:46:35;100222.59;;;13.28;100.00
14253;BME280;7210;51.502;10.722;2022-10-17T07:49:03;100220.66;;;13.35;100.00
14253;BME280;7210;51.502;10.722;2022-10-17T07:51:30;100229.78;;;13.39;100.00
14253;BME280;7210;51.502;10.722;2022-10-17T07:53:57;100239.50;;;13.45;100.00
14253;BME280;7210;51.502;10.722;2022-10-17T07:56:24;100234.44;;;13.55;100.00
14253;BME280;7210;51.502;10.722;2022-10-17T07:58:55;100236.03;;;13.56;100.00
14253;BME280;7210;51.502;10.722;2022-10-17T08:01:23;100235.56;;;13.59;100.00
14253;BME280;7210;51.502;10.722;2022-10-17T08:03:50;100233.75;;;13.71;100.00
14253;BME280;7210;51.502;10.722;2022-10-17T08:06:18;100237.19;;;13.83;100.00
14253;BME280;7210;51.502;10.722;2022-10-17T08:08:45;100224.94;;;13.82;100.00
14253;BME280;7210;51.502;10.722;2022-10-17T08:11:14;100224.25;;;13.98;100.00
14253;BME280;7210;51.502;10.722;2022-10-17T08:13:42;100229.78;;;14.08;100.00
14253;BME280;7210;51.502;10.722;2022-10-17T08:16:12;100222.88;;;14.18;100.00
14253;BME280;7210;51.502;10.722;2022-10-17T08:18:41;100229.09;;;14.24;100.00
14253;BME280;7210;51.502;10.722;2022-10-17T08:21:10;100227.22;;;14.36;100.00
14253;BME280;7210;51.502;10.722;2022-10-17T08:23:39;100227.59;;;14.67;100.00
14253;BME280;7210;51.502;10.722;2022-10-17T08:26:08;100224.66;;;14.97;100.00
14253;BME280;7210;51.502;10.722;2022-10-17T08:28:39;100225.59;;;15.18;100.00
14253;BME280;7210;51.502;10.722;2022-10-17T08:31:11;100219.75;;;15.49;100.00
14253;BME280;7210;51.502;10.722;2022-10-17T08:33:39;100215.09;;;15.78;100.00
14253;BME280;7210;51.502;10.722;2022-10-17T08:36:08;100215.78;;;16.06;100.00
14253;BME280;7210;51.502;10.722;2022-10-17T08:38:36;100212.75;;;16.19;100.00
14253;BME280;7210;51.502;10.722;2022-10-17T08:41:13;100215.84;;;16.33;100.00
14253;BME280;7210;51.502;10.722;2022-10-17T08:44:03;100201.84;;;16.42;100.00
14253;BME280;7210;51.502;10.722;2022-10-17T08:46:39;100213.69;;;16.51;100.00
14253;BME280;7210;51.502;10.722;2022-10-17T08:49:15;100211.66;;;16.58;100.00
14253;BME280;7210;51.502;10.722;2022-10-17T08:51:53;100206.47;;;16.73;100.00
14253;BME280;7210;51.502;10.722;2022-10-17T08:54:37;100206.94;;;16.92;100.00
14253;BME280;7210;51.502;10.722;2022-10-17T08:57:11;100204.94;;;17.09;100.00
14253;BME280;7210;51.502;10.722;2022-10-17T08:59:39;100200.28;;;17.26;100.00
14253;BME280;7210;51.502;10.722;2022-10-17T09:02:38;100202.81;;;17.37;100.00
14253;BME280;7210;51.502;10.722;2022-10-17T09:05:29;100207.75;;;17.50;100.00
14253;BME280;7210;51.502;10.722;2022-10-17T09:08:11;100189.63;;;17.62;100.00
14253;BME280;7210;51.502;10.722;2022-10-17T09:10:54;100194.03;;;17.78;100.00
14253;BME280;7210;51.502;10.722;2022-10-17T09:13:43;100191.41;;;17.93;100.00
14253;BME280;7210;51.502;10.722;2022-10-17T09:19:22;100189.66;;;18.19;100.00
14253;BME280;7210;51.502;10.722;2022-10-17T09:21:58;100189.47;;;18.25;100.00
14253;BME280;7210;51.502;10.722;2022-10-17T09:24:39;100190.53;;;18.29;100.00
14253;BME280;7210;51.502;10.722;2022-10-17T09:27:21;100187.91;;;18.34;98.87
14253;BME280;7210;51.502;10.722;2022-10-17T09:30:13;100187.97;;;18.54;98.41
14253;BME280;7210;51.502;10.722;2022-10-17T09:32:41;100187.47;;;18.77;97.21
14253;BME280;7210;51.502;10.722;2022-10-17T09:35:13;100186.44;;;18.88;96.37
14253;BME280;7210;51.502;10.722;2022-10-17T09:37:41;100188.63;;;19.11;95.74
14253;BME280;7210;51.502;10.722;2022-10-17T09:40:18;100195.06;;;19.20;94.89
14253;BME280;7210;51.502;10.722;2022-10-17T09:42:49;100189.97;;;19.29;94.05
14253;BME280;7210;51.502;10.722;2022-10-17T09:45:19;100200.44;;;19.45;93.90
14253;BME280;7210;51.502;10.722;2022-10-17T09:48:00;100183.78;;;19.53;92.42
14253;BME280;7210;51.502;10.722;2022-10-17T09:50:33;100184.31;;;19.65;90.85
14253;BME280;7210;51.502;10.722;2022-10-17T09:53:12;100181.34;;;19.76;89.25
14253;BME280;7210;51.502;10.722;2022-10-17T09:55:45;100179.97;;;19.89;89.06
14253;BME280;7210;51.502;10.722;2022-10-17T09:58:14;100172.97;;;19.98;87.84
14253;BME280;7210;51.502;10.722;2022-10-17T10:00:44;100173.75;;;19.98;87.55
14253;BME280;7210;51.502;10.722;2022-10-17T10:03:18;100173.50;;;20.05;87.09
14253;BME280;7210;51.502;10.722;2022-10-17T10:06:12;100177.53;;;20.07;86.91
14253;BME280;7210;51.502;10.722;2022-10-17T10:08:51;100167.00;;;20.21;85.27
14253;BME280;7210;51.502;10.722;2022-10-17T10:11:25;100171.81;;;20.24;85.62
14253;BME280;7210;51.502;10.722;2022-10-17T10:14:14;100162.09;;;20.38;83.52
14253;BME280;7210;51.502;10.722;2022-10-17T10:16:47;100165.69;;;20.67;83.45
14253;BME280;7210;51.502;10.722;2022-10-17T10:19:27;100152.69;;;20.79;83.95
14253;BME280;7210;51.502;10.722;2022-10-17T10:21:59;100162.78;;;21.02;83.36
14253;BME280;7210;51.502;10.722;2022-10-17T10:24:28;100156.13;;;21.28;80.81
14253;BME280;7210;51.502;10.722;2022-10-17T10:27:00;100152.59;;;21.56;79.28
14253;BME280;7210;51.502;10.722;2022-10-17T10:29:32;100144.81;;;21.83;77.70
14253;BME280;7210;51.502;10.722;2022-10-17T10:32:10;100139.59;;;22.15;75.99
14253;BME280;7210;51.502;10.722;2022-10-17T10:34:47;100145.19;;;22.42;74.75
14253;BME280;7210;51.502;10.722;2022-10-17T10:37:20;100144.53;;;22.68;73.50
14253;BME280;7210;51.502;10.722;2022-10-17T10:39:53;100138.03;;;22.88;71.24
14253;BME280;7210;51.502;10.722;2022-10-17T10:42:28;100135.88;;;22.90;71.82
14253;BME280;7210;51.502;10.722;2022-10-17T10:45:03;100139.50;;;22.99;70.55
14253;BME280;7210;51.502;10.722;2022-10-17T10:47:32;100140.31;;;23.13;69.68
14253;BME280;7210;51.502;10.722;2022-10-17T10:50:24;100134.38;;;23.16;70.20
14253;BME280;7210;51.502;10.722;2022-10-17T10:53:08;100140.03;;;23.33;68.77
14253;BME280;7210;51.502;10.722;2022-10-17T10:55:41;100138.72;;;23.12;68.94
14253;BME280;7210;51.502;10.722;2022-10-17T10:58:25;100131.09;;;23.00;68.04
14253;BME280;7210;51.502;10.722;2022-10-17T11:00:56;100141.88;;;23.00;67.81
14253;BME280;7210;51.502;10.722;2022-10-17T11:03:36;100140.78;;;23.20;67.76
14253;BME280;7210;51.502;10.722;2022-10-17T11:06:17;100131.00;;;23.24;66.88
14253;BME280;7210;51.502;10.722;2022-10-17T11:08:53;100138.00;;;23.25;66.97
14253;BME280;7210;51.502;10.722;2022-10-17T11:11:31;100145.13;;;23.34;66.46
14253;BME280;7210;51.502;10.722;2022-10-17T11:14:13;100135.66;;;23.64;64.75
14253;BME280;7210;51.502;10.722;2022-10-17T11:16:47;100134.00;;;23.68;64.33
14253;BME280;7210;51.502;10.722;2022-10-17T11:19:24;100133.66;;;23.69;64.71
14253;BME280;7210;51.502;10.722;2022-10-17T11:22:06;100109.84;;;23.58;63.12
14253;BME280;7210;51.502;10.722;2022-10-17T11:24:45;100115.88;;;23.68;62.57
14253;BME280;7210;51.502;10.722;2022-10-17T11:27:15;100126.25;;;23.61;62.02
14253;BME280;7210;51.502;10.722;2022-10-17T11:29:44;100127.75;;;23.54;62.15
14253;BME280;7210;51.502;10.722;2022-10-17T11:32:19;100127.53;;;23.37;62.63
14253;BME280;7210;51.502;10.722;2022-10-17T11:34:53;100127.00;;;23.35;61.92
14253;BME280;7210;51.502;10.722;2022-10-17T11:37:27;100129.81;;;23.30;56.43
14253;BME280;7210;51.502;10.722;2022-10-17T11:40:03;100134.34;;;23.48;55.28
14253;BME280;7210;51.502;10.722;2022-10-17T11:42:39;100133.06;;;23.59;62.66
14253;BME280;7210;51.502;10.722;2022-10-17T11:45:13;100128.38;;;23.77;55.67
14253;BME280;7210;51.502;10.722;2022-10-17T11:47:46;100121.38;;;23.77;57.34
14253;BME280;7210;51.502;10.722;2022-10-17T11:50:23;100116.88;;;23.72;61.19
14253;BME280;7210;51.502;10.722;2022-10-17T11:52:57;100112.66;;;23.79;61.42
14253;BME280;7210;51.502;10.722;2022-10-17T11:55:29;100106.09;;;23.86;61.30
14253;BME280;7210;51.502;10.722;2022-10-17T11:58:21;100114.09;;;24.04;61.42
14253;BME280;7210;51.502;10.722;2022-10-17T12:01:06;100109.06;;;24.24;60.24
14253;BME280;7210;51.502;10.722;2022-10-17T12:04:14;100111.66;;;24.29;60.34
14253;BME280;7210;51.502;10.722;2022-10-17T12:06:58;100123.88;;;24.27;60.39
14253;BME280;7210;51.502;10.722;2022-10-17T12:09:41;100124.25;;;24.20;59.18
14253;BME280;7210;51.502;10.722;2022-10-17T12:12:24;100118.44;;;24.40;59.00
14253;BME280;7210;51.502;10.722;2022-10-17T12:14:53;100121.72;;;24.51;59.82
14253;BME280;7210;51.502;10.722;2022-10-17T12:17:39;100120.28;;;24.67;58.65
14253;BME280;7210;51.502;10.722;2022-10-17T12:20:29;100122.34;;;24.83;58.61
14253;BME280;7210;51.502;10.722;2022-10-17T12:23:04;100126.94;;;24.83;59.43
14253;BME280;7210;51.502;10.722;2022-10-17T12:25:49;100125.22;;;24.87;58.66
14253;BME280;7210;51.502;10.722;2022-10-17T12:28:26;100118.28;;;24.94;58.16
14253;BME280;7210;51.502;10.722;2022-10-17T12:30:59;100106.63;;;24.94;57.16
14253;BME280;7210;51.502;10.722;2022-10-17T12:33:34;100121.91;;;24.90;58.78
14253;BME280;7210;51.502;10.722;2022-10-17T12:36:44;100099.44;;;24.89;56.24
14253;BME280;7210;51.502;10.722;2022-10-17T12:39:49;100107.38;;;24.50;57.21
14253;BME280;7210;51.502;10.722;2022-10-17T12:42:47;100110.84;;;24.29;58.16
14253;BME280;7210;51.502;10.722;2022-10-17T12:45:50;100123.72;;;24.10;58.53
14253;BME280;7210;51.502;10.722;2022-10-17T12:49:00;100122.06;;;24.09;57.39
14253;BME280;7210;51.502;10.722;2022-10-17T12:51:29;100120.69;;;23.98;58.55
14253;BME280;7210;51.502;10.722;2022-10-17T12:54:16;100124.09;;;23.90;58.46
14253;BME280;7210;51.502;10.722;2022-10-17T12:56:46;100130.47;;;23.80;59.22
14253;BME280;7210;51.502;10.722;2022-10-17T12:59:19;100119.66;;;23.80;59.49
14253;BME280;7210;51.502;10.722;2022-10-17T13:01:52;100124.16;;;23.85;59.59
14253;BME280;7210;51.502;10.722;2022-10-17T13:04:20;100132.06;;;23.81;59.60
14253;BME280;7210;51.502;10.722;2022-10-17T13:06:56;100127.78;;;23.80;59.21
14253;BME280;7210;51.502;10.722;2022-10-17T13:09:28;100126.81;;;23.90;58.99
14253;BME280;7210;51.502;10.722;2022-10-17T13:11:59;100124.66;;;23.73;59.08
14253;BME280;7210;51.502;10.722;2022-10-17T13:14:30;100126.09;;;23.84;58.89
14253;BME280;7210;51.502;10.722;2022-10-17T13:17:03;100132.47;;;23.75;59.90
14253;BME280;7210;51.502;10.722;2022-10-17T13:19:39;100134.00;;;23.68;59.85
14253;BME280;7210;51.502;10.722;2022-10-17T13:22:15;100141.47;;;23.71;59.96
14253;BME280;7210;51.502;10.722;2022-10-17T13:24:43;100144.09;;;23.76;59.78
14253;BME280;7210;51.502;10.722;2022-10-17T13:27:24;100135.19;;;23.75;59.52